Time;durP1;ratioP1;P1;durP2;ratioP2;P2;SDS_P1;SDS_P2;PMS_P1;PMS_P2;Temp;Humidity;BMP_temperature;BMP_pressure;BME280_temperature;BME280_humidity;BME280_pressure;Samples;Min_cycle;Max_cycle;Signal;HPM_P1;HPM_P2
2022/04/30 00:00:46;;;;;;;13.82;9.30;;;;;;;12.83;100.00;101832.03;5096283;28;20038;-82
2022/04/30 00:03:32;;;;;;;12.50;9.07;;;;;;;13.00;100.00;101831.94;5094364;28;20110;-82
2022/04/30 00:06:18;;;;;;;13.75;9.45;;;;;;;12.99;100.00;101831.03;5096880;28;20039;-83
2022/04/30 00:09:04;;;;;;;13.35;9.27;;;;;;;12.96;100.00;101833.69;5096504;28;20038;-82
2022/04/30 00:11:49;;;;;;;14.05;10.00;;;;;;;12.86;100.00;101824.13;5095463;28;20539;-82
2022/04/30 00:14:36;;;;;;;12.15;9.18;;;;;;;12.94;100.00;101827.56;5080432;28;20089;-83
2022/04/30 00:17:22;;;;;;;13.18;9.70;;;;;;;12.78;100.00;101827.72;5095140;28;20038;-82
2022/04/30 00:20:08;;;;;;;14.60;10.05;;;;;;;12.85;100.00;101821.50;5095802;28;20027;-82
2022/04/30 00:22:54;;;;;;;16.35;9.57;;;;;;;12.65;100.00;101829.59;5094935;28;20107;-82
2022/04/30 00:25:40;;;;;;;14.70;10.13;;;;;;;12.70;100.00;101830.41;5095974;28;20036;-81
2022/04/30 00:28:26;;;;;;;12.35;9.82;;;;;;;12.68;100.00;101824.31;5080669;28;20039;-82
2022/04/30 00:31:12;;;;;;;14.23;11.48;;;;;;;13.11;100.00;101830.91;5095749;28;20028;-83
2022/04/30 00:33:58;;;;;;;16.42;11.18;;;;;;;12.80;100.00;101823.31;5096376;28;20028;-81
2022/04/30 00:36:44;;;;;;;17.92;11.55;;;;;;;12.75;100.00;101820.75;5095815;28;20024;-83
2022/04/30 00:39:31;;;;;;;18.05;12.15;;;;;;;12.94;100.00;101831.97;5095150;28;20028;-83
2022/04/30 00:42:17;;;;;;;17.45;12.20;;;;;;;12.71;100.00;101824.28;5094329;28;20392;-82
2022/04/30 00:45:04;;;;;;;19.25;12.10;;;;;;;12.87;100.00;101825.00;5094789;28;20020;-83
2022/04/30 00:47:50;;;;;;;21.13;12.95;;;;;;;13.09;100.00;101830.09;5081531;28;20024;-82
2022/04/30 00:50:37;;;;;;;24.33;14.15;;;;;;;12.72;100.00;101831.28;5094942;28;20117;-83
2022/04/30 00:53:23;;;;;;;19.48;15.30;;;;;;;12.42;100.00;101828.03;5094811;28;20481;-82
2022/04/30 00:56:11;;;;;;;23.52;15.07;;;;;;;12.72;100.00;101831.28;5095489;28;20077;-82
2022/04/30 00:59:00;;;;;;;21.30;15.50;;;;;;;12.97;100.00;101822.31;5094452;28;20024;-81
2022/04/30 01:01:47;;;;;;;22.08;15.30;;;;;;;12.49;100.00;101821.81;5079582;28;20111;-82
2022/04/30 01:04:33;;;;;;;23.58;15.45;;;;;;;12.86;100.00;101826.75;5094337;28;20119;-82
2022/04/30 01:07:20;;;;;;;19.20;14.25;;;;;;;12.61;100.00;101824.34;5094946;28;20024;-81
2022/04/30 01:10:08;;;;;;;19.15;14.65;;;;;;;12.36;100.00;101826.31;5094215;28;20024;-82
2022/04/30 01:12:54;;;;;;;18.27;14.00;;;;;;;12.71;100.00;101823.41;5079922;28;20357;-81
2022/04/30 01:15:40;;;;;;;16.75;13.82;;;;;;;12.74;100.00;101829.50;5095174;28;20036;-82
2022/04/30 01:18:27;;;;;;;17.98;14.02;;;;;;;12.66;100.00;101827.84;5094831;28;20031;-82
2022/04/30 01:21:16;;;;;;;19.05;13.10;;;;;;;12.67;100.00;101825.19;5080063;28;20020;-82
2022/04/30 01:24:03;;;;;;;17.38;12.73;;;;;;;12.47;100.00;101826.22;5095283;28;20039;-81
2022/04/30 01:26:53;;;;;;;17.38;12.35;;;;;;;12.45;100.00;101823.59;5080725;28;20441;-80
2022/04/30 01:29:39;;;;;;;15.05;12.23;;;;;;;12.44;100.00;101816.63;5096677;28;20027;-82
2022/04/30 01:38:37;;;;;;;36.38;22.10;;;;;;;12.24;100.00;101820.25;5094415;28;20036;-82
2022/04/30 01:41:23;;;;;;;27.30;17.25;;;;;;;12.33;100.00;101822.81;5094722;28;20406;-83
2022/04/30 01:44:09;;;;;;;17.23;11.93;;;;;;;12.41;100.00;101814.00;5095100;28;20023;-82
2022/04/30 01:46:56;;;;;;;16.02;12.90;;;;;;;12.56;100.00;101813.88;5095547;28;20051;-81
2022/04/30 01:49:42;;;;;;;19.77;13.60;;;;;;;12.56;100.00;101803.38;5095105;28;20028;-82
2022/04/30 01:52:29;;;;;;;15.65;11.93;;;;;;;12.49;100.00;101814.81;5095797;28;20036;-81
2022/04/30 01:55:15;;;;;;;18.13;13.30;;;;;;;12.33;100.00;101807.94;5095201;28;20376;-82
2022/04/30 01:58:02;;;;;;;16.40;11.82;;;;;;;12.53;100.00;101813.91;5080292;28;20087;-81
2022/04/30 02:00:47;;;;;;;13.50;12.02;;;;;;;12.40;100.00;101808.75;5079766;28;20051;-81
2022/04/30 02:03:34;;;;;;;18.52;13.43;;;;;;;12.27;100.00;101805.34;5094921;28;20035;-82
2022/04/30 02:06:21;;;;;;;20.45;13.35;;;;;;;12.30;100.00;101801.84;5096088;28;20120;-81
2022/04/30 02:09:06;;;;;;;25.35;16.48;;;;;;;12.44;100.00;101808.72;5093939;28;20032;-82
2022/04/30 02:11:53;;;;;;;25.60;15.63;;;;;;;12.55;100.00;101800.75;5094538;28;20024;-82
2022/04/30 02:14:42;;;;;;;25.25;14.75;;;;;;;12.45;100.00;101797.31;5094964;28;20050;-82
2022/04/30 02:17:35;;;;;;;35.47;18.75;;;;;;;12.38;100.00;101792.13;5094524;28;20028;-82
2022/04/30 02:20:22;;;;;;;19.73;13.15;;;;;;;12.12;100.00;101794.94;5080074;28;20028;-82
2022/04/30 02:23:09;;;;;;;21.33;13.85;;;;;;;12.34;100.00;101793.03;5094706;28;20031;-82
2022/04/30 02:25:55;;;;;;;15.52;12.63;;;;;;;11.95;100.00;101790.69;5082628;28;20112;-82
2022/04/30 02:28:42;;;;;;;16.45;12.10;;;;;;;12.07;100.00;101785.34;5098864;28;20051;-81
2022/04/30 02:31:27;;;;;;;16.50;12.40;;;;;;;12.09;100.00;101788.84;5098940;28;20028;-81
2022/04/30 02:34:16;;;;;;;16.30;12.63;;;;;;;11.45;100.00;101798.75;5082570;28;20039;-82
2022/04/30 02:37:03;;;;;;;18.02;14.27;;;;;;;11.15;100.00;101793.63;5098931;28;20081;-82
2022/04/30 02:39:49;;;;;;;17.45;13.60;;;;;;;11.26;100.00;101794.47;5100367;28;20032;-82
2022/04/30 02:42:35;;;;;;;19.60;14.07;;;;;;;11.41;100.00;101791.78;5099298;28;20020;-82
2022/04/30 02:45:22;;;;;;;20.25;14.13;;;;;;;11.72;100.00;101797.78;5099056;28;20028;-81
2022/04/30 02:48:09;;;;;;;19.10;14.13;;;;;;;11.65;100.00;101791.72;5084066;28;20024;-80
2022/04/30 02:50:59;;;;;;;22.45;15.15;;;;;;;11.55;100.00;101791.72;5099787;28;20028;-82
2022/04/30 02:53:45;;;;;;;18.73;13.73;;;;;;;11.61;100.00;101784.72;5098913;28;20115;-81
2022/04/30 02:56:30;;;;;;;18.83;13.70;;;;;;;11.61;100.00;101789.97;5099016;28;20120;-81
2022/04/30 03:02:24;;;;;;;19.65;13.18;;;;;;;11.30;100.00;101788.34;5098673;28;20039;-82
2022/04/30 03:05:09;;;;;;;18.60;13.05;;;;;;;11.50;100.00;101789.16;5098789;28;20471;-83
2022/04/30 03:07:55;;;;;;;18.75;14.05;;;;;;;11.56;100.00;101791.72;5099747;28;20356;-82
2022/04/30 03:10:45;;;;;;;19.50;13.43;;;;;;;11.51;100.00;101795.25;5097690;28;20112;-82
2022/04/30 03:13:31;;;;;;;19.20;14.05;;;;;;;11.77;100.00;101790.78;5097249;28;20035;-82
2022/04/30 03:22:25;;;;;;;20.83;14.00;;;;;;;11.69;100.00;101795.22;5097733;28;20101;-82
2022/04/30 03:25:10;;;;;;;19.63;12.98;;;;;;;11.43;100.00;101792.66;5096716;28;20035;-82
2022/04/30 03:27:56;;;;;;;18.65;12.90;;;;;;;11.36;100.00;101800.53;5096914;28;20032;-82
2022/04/30 03:30:42;;;;;;;18.13;14.25;;;;;;;11.33;100.00;101803.19;5096993;28;20161;-82
2022/04/30 03:33:28;;;;;;;19.00;13.50;;;;;;;11.42;100.00;101808.41;5101521;28;20102;-81
2022/04/30 03:36:15;;;;;;;19.98;14.27;;;;;;;11.39;100.00;101804.06;5109956;28;20045;-82
2022/04/30 03:39:02;;;;;;;17.90;12.70;;;;;;;11.40;100.00;101808.41;5104778;28;20108;-81
2022/04/30 03:41:47;;;;;;;22.55;13.32;;;;;;;11.40;100.00;101805.78;5096537;28;20418;-81
2022/04/30 03:44:33;;;;;;;17.42;13.25;;;;;;;11.24;100.00;101808.44;5081620;28;20031;-82
2022/04/30 03:47:20;;;;;;;17.95;12.98;;;;;;;11.46;100.00;101811.03;5081735;28;20031;-82
2022/04/30 03:50:07;;;;;;;18.75;13.52;;;;;;;11.50;100.00;101820.63;5096869;28;20063;-82
2022/04/30 03:52:52;;;;;;;20.55;13.52;;;;;;;11.36;100.00;101819.78;5080805;28;20032;-82
2022/04/30 03:55:38;;;;;;;23.42;14.73;;;;;;;11.60;100.00;101818.81;5098444;28;20024;-83
2022/04/30 03:58:24;;;;;;;19.17;14.80;;;;;;;11.65;100.00;101823.22;5094962;28;20027;-82
2022/04/30 04:01:11;;;;;;;21.15;14.23;;;;;;;11.64;100.00;101829.34;5082409;28;20024;-81
2022/04/30 04:04:00;;;;;;;19.88;14.05;;;;;;;11.68;100.00;101824.94;5102816;28;20095;-82
2022/04/30 04:06:47;;;;;;;19.40;15.20;;;;;;;11.86;100.00;101828.34;5101271;28;20052;-82
2022/04/30 04:09:32;;;;;;;20.23;14.73;;;;;;;11.84;100.00;101821.38;5101115;28;20114;-83
2022/04/30 04:12:18;;;;;;;20.05;14.07;;;;;;;11.81;100.00;101824.88;5100058;28;20523;-80
2022/04/30 04:18:13;;;;;;;19.88;13.45;;;;;;;11.37;100.00;101826.78;5099650;28;20046;-82
2022/04/30 04:20:59;;;;;;;21.10;12.55;;;;;;;11.71;100.00;101831.06;5096818;28;20020;-81
2022/04/30 04:26:50;;;;;;;15.85;11.85;;;;;;;11.27;100.00;101832.94;5095685;28;20337;-82
2022/04/30 04:29:36;;;;;;;17.13;11.50;;;;;;;11.45;100.00;101845.16;5096094;28;20088;-82
2022/04/30 04:32:22;;;;;;;14.38;11.02;;;;;;;11.35;100.00;101846.03;5081938;28;20032;-83
2022/04/30 04:35:13;;;;;;;15.32;11.60;;;;;;;11.91;100.00;101834.47;5081095;28;20035;-82
2022/04/30 04:37:58;;;;;;;16.98;12.00;;;;;;;11.53;100.00;101841.59;5096720;28;20104;-83
2022/04/30 04:40:44;;;;;;;13.13;10.05;;;;;;;11.60;100.00;101840.75;5080407;28;20024;-82
2022/04/30 04:43:30;;;;;;;12.07;10.27;;;;;;;11.92;100.00;101837.97;5096073;28;20364;-83
2022/04/30 04:46:16;;;;;;;14.43;10.90;;;;;;;11.91;100.00;101830.97;5094620;28;20034;-83
2022/04/30 04:49:02;;;;;;;13.27;9.93;;;;;;;12.42;100.00;101830.66;5095893;28;20083;-83
2022/04/30 04:51:48;;;;;;;11.57;9.40;;;;;;;11.99;100.00;101829.16;5095570;28;20074;-84
2022/04/30 04:54:34;;;;;;;13.95;10.45;;;;;;;11.82;100.00;101836.28;5080239;28;20198;-83
2022/04/30 04:57:20;;;;;;;13.20;9.55;;;;;;;12.08;100.00;101831.75;5095210;28;20035;-82
2022/04/30 05:00:08;;;;;;;14.68;10.48;;;;;;;11.87;100.00;101845.00;5095550;28;20035;-82
2022/04/30 05:02:54;;;;;;;12.73;10.23;;;;;;;11.95;100.00;101851.09;5079594;28;20030;-81
2022/04/30 05:05:40;;;;;;;13.77;11.20;;;;;;;11.77;100.00;101840.69;5094925;28;20414;-83
2022/04/30 05:08:25;;;;;;;14.77;11.05;;;;;;;11.91;100.00;101842.34;5095805;28;20032;-83
2022/04/30 05:11:11;;;;;;;19.05;11.43;;;;;;;11.86;100.00;101844.09;5094809;28;20427;-83
2022/04/30 05:13:57;;;;;;;28.10;18.73;;;;;;;12.32;100.00;101845.63;5095368;28;20028;-82
2022/04/30 05:16:47;;;;;;;18.33;11.98;;;;;;;12.34;100.00;101850.88;5095058;28;20467;-83
2022/04/30 05:19:33;;;;;;;16.63;11.35;;;;;;;12.37;100.00;101850.81;5094651;28;20024;-83
2022/04/30 05:22:20;;;;;;;18.58;11.57;;;;;;;12.45;100.00;101842.00;5094769;28;20048;-83
2022/04/30 05:25:06;;;;;;;16.13;11.00;;;;;;;12.70;100.00;101847.97;5080483;28;20360;-83
2022/04/30 05:27:52;;;;;;;14.20;10.95;;;;;;;12.57;100.00;101844.53;5079737;28;20024;-82
2022/04/30 05:30:38;;;;;;;14.52;10.82;;;;;;;13.24;100.00;101843.09;5094026;28;20032;-82
2022/04/30 05:33:24;;;;;;;15.70;11.23;;;;;;;13.04;100.00;101836.28;5094557;28;20051;-82
2022/04/30 05:36:10;;;;;;;17.70;10.73;;;;;;;12.78;100.00;101851.41;5095766;28;20404;-83
2022/04/30 05:38:55;;;;;;;15.15;10.18;;;;;;;12.83;100.00;101849.59;5094221;28;20134;-82
2022/04/30 05:41:41;;;;;;;13.68;9.70;;;;;;;13.34;100.00;101851.78;5081183;28;20048;-84
2022/04/30 05:44:27;;;;;;;15.52;10.50;;;;;;;13.73;100.00;101853.91;5095189;28;20035;-83
2022/04/30 05:47:13;;;;;;;12.25;9.23;;;;;;;13.78;100.00;101863.50;5093067;28;20028;-82
2022/04/30 05:49:58;;;;;;;13.38;8.90;;;;;;;13.82;100.00;101865.22;5094221;28;20106;-83
2022/04/30 05:52:44;;;;;;;14.68;9.27;;;;;;;14.21;100.00;101853.31;5093860;28;20107;-83
2022/04/30 05:55:34;;;;;;;12.60;8.85;;;;;;;13.96;100.00;101859.78;5095063;28;20123;-83
2022/04/30 05:58:19;;;;;;;12.40;8.50;;;;;;;13.38;100.00;101861.38;5093918;28;20456;-83
2022/04/30 06:01:05;;;;;;;15.57;9.05;;;;;;;13.62;100.00;101869.84;5096514;28;20364;-82
2022/04/30 06:03:52;;;;;;;14.13;8.10;;;;;;;13.95;100.00;101876.50;5098329;28;20060;-83
2022/04/30 06:06:38;;;;;;;12.38;8.40;;;;;;;14.00;100.00;101870.28;5098779;28;20024;-83
2022/04/30 06:09:23;;;;;;;15.93;9.43;;;;;;;13.87;100.00;101867.81;5097605;28;20028;-84
2022/04/30 06:12:09;;;;;;;13.35;8.93;;;;;;;14.08;100.00;101870.16;5098716;28;20028;-82
2022/04/30 06:14:55;;;;;;;11.30;7.70;;;;;;;13.81;100.00;101871.38;5098122;28;20463;-83
2022/04/30 06:17:41;;;;;;;10.82;7.35;;;;;;;14.29;100.00;101872.53;5097783;28;20483;-83
2022/04/30 06:20:27;;;;;;;9.43;7.00;;;;;;;14.34;100.00;101868.06;5098652;28;20024;-82
2022/04/30 06:23:16;;;;;;;12.27;7.82;;;;;;;14.65;100.00;101864.94;5097946;28;20024;-83
2022/04/30 06:26:01;;;;;;;15.13;8.13;;;;;;;14.43;100.00;101862.66;5098351;28;20020;-82
2022/04/30 06:28:47;;;;;;;11.45;7.38;;;;;;;14.34;100.00;101870.69;5098161;28;20020;-82
2022/04/30 06:31:33;;;;;;;13.32;7.93;;;;;;;14.50;100.00;101867.81;5098333;28;20066;-82
2022/04/30 06:34:22;;;;;;;11.10;7.28;;;;;;;14.78;100.00;101866.47;5097465;28;20043;-81
2022/04/30 06:37:08;;;;;;;10.27;6.80;;;;;;;14.72;100.00;101869.19;5098231;28;20054;-81
2022/04/30 06:39:54;;;;;;;11.63;7.05;;;;;;;14.22;100.00;101860.31;5097453;28;20024;-83
2022/04/30 06:42:41;;;;;;;10.90;7.07;;;;;;;14.22;100.00;101865.59;5084313;28;20028;-82
2022/04/30 06:45:27;;;;;;;9.65;7.65;;;;;;;13.96;100.00;101867.69;5098438;28;20028;-83
2022/04/30 06:48:16;;;;;;;12.18;7.65;;;;;;;14.42;100.00;101853.00;5097954;28;20099;-83
2022/04/30 06:51:02;;;;;;;10.57;7.13;;;;;;;14.65;100.00;101859.66;5097857;28;20047;-82
2022/04/30 06:57:08;;;;;;;9.32;6.72;;;;;;;15.41;100.00;101863.63;5098536;28;20448;-83
2022/04/30 06:59:57;;;;;;;10.85;6.45;;;;;;;15.66;100.00;101864.88;5097589;28;20353;-82
2022/04/30 07:02:43;;;;;;;12.80;6.43;;;;;;;16.36;100.00;101868.63;5097098;28;20023;-83
2022/04/30 07:05:34;;;;;;;11.65;7.40;;;;;;;15.34;100.00;101856.72;5096634;28;20020;-84
2022/04/30 07:08:20;;;;;;;9.95;7.28;;;;;;;15.49;100.00;101859.06;5081890;28;20043;-83
2022/04/30 07:11:08;;;;;;;7.88;6.32;;;;;;;15.33;100.00;101857.59;5096993;28;20038;-83
2022/04/30 07:13:54;;;;;;;7.63;6.53;;;;;;;15.60;100.00;101857.09;5097479;28;20027;-83
2022/04/30 07:16:40;;;;;;;10.25;6.70;;;;;;;15.26;100.00;101863.91;5097508;28;20028;-83
2022/04/30 07:19:26;;;;;;;9.50;5.70;;;;;;;15.66;100.00;101857.84;5096550;28;20040;-83
2022/04/30 07:22:13;;;;;;;10.52;6.38;;;;;;;15.71;100.00;101860.41;5096705;28;20032;-83
2022/04/30 07:24:58;;;;;;;7.18;5.75;;;;;;;16.03;100.00;101858.81;5097998;28;20023;-83
2022/04/30 07:27:44;;;;;;;8.32;5.82;;;;;;;16.31;100.00;101861.72;5096321;28;20077;-82
2022/04/30 07:30:30;;;;;;;8.50;6.00;;;;;;;16.57;100.00;101854.06;5096663;28;20031;-83
2022/04/30 07:33:15;;;;;;;7.30;5.90;;;;;;;17.00;100.00;101860.06;5096561;28;20039;-83
2022/04/30 07:36:02;;;;;;;7.68;5.70;;;;;;;17.08;100.00;101855.44;5097634;28;20448;-83
2022/04/30 07:38:47;;;;;;;7.10;5.35;;;;;;;16.37;100.00;101856.28;5096836;28;20027;-82
2022/04/30 07:41:33;;;;;;;6.55;5.18;;;;;;;16.97;100.00;101860.13;5096317;28;20107;-84
2022/04/30 07:44:19;;;;;;;6.93;4.93;;;;;;;17.30;100.00;101852.16;5096277;28;20028;-83
2022/04/30 07:47:05;;;;;;;7.65;4.53;;;;;;;16.93;100.00;101851.41;5095858;28;20333;-82
2022/04/30 07:49:51;;;;;;;7.05;4.75;;;;;;;17.39;100.00;101851.03;5096928;28;20020;-83
2022/04/30 07:52:37;;;;;;;7.65;5.35;;;;;;;16.71;100.00;101859.88;5096899;28;20063;-83
2022/04/30 07:55:23;;;;;;;11.23;8.60;;;;;;;16.88;100.00;101868.31;5082114;28;20047;-83
2022/04/30 07:58:09;;;;;;;13.55;8.77;;;;;;;17.77;100.00;101858.81;5095827;28;20082;-83
2022/04/30 08:00:55;;;;;;;7.60;4.85;;;;;;;17.58;100.00;101858.47;5095837;28;20032;-84
2022/04/30 08:03:41;;;;;;;10.75;5.35;;;;;;;18.04;100.00;101858.88;5095369;28;20024;-83
2022/04/30 08:06:27;;;;;;;7.35;4.70;;;;;;;17.16;100.00;101864.03;5096542;28;20024;-83
2022/04/30 08:09:13;;;;;;;6.35;4.45;;;;;;;17.73;100.00;101865.97;5096351;28;20020;-82
2022/04/30 08:11:59;;;;;;;8.85;5.50;;;;;;;18.36;100.00;101847.31;5097232;28;20032;-83
2022/04/30 08:14:45;;;;;;;7.85;5.20;;;;;;;18.91;100.00;101855.22;5081728;28;20448;-83
2022/04/30 08:17:31;;;;;;;8.93;4.70;;;;;;;19.34;100.00;101850.19;5095617;28;20108;-84
2022/04/30 08:20:17;;;;;;;6.35;4.70;;;;;;;19.50;99.53;101851.41;5095840;28;20050;-82
2022/04/30 08:23:07;;;;;;;6.80;4.70;;;;;;;19.08;100.00;101855.50;5094553;28;20440;-83
2022/04/30 08:25:52;;;;;;;8.68;4.85;;;;;;;19.26;100.00;101857.56;5095620;28;20020;-83
2022/04/30 08:28:41;;;;;;;7.13;4.20;;;;;;;18.60;100.00;101855.38;5080001;28;20031;-82
2022/04/30 08:31:27;;;;;;;7.10;4.82;;;;;;;18.28;100.00;101852.81;5098309;28;20455;-83
2022/04/30 08:34:15;;;;;;;4.90;4.13;;;;;;;18.35;100.00;101840.25;5098477;28;20035;-82
2022/04/30 08:37:00;;;;;;;6.00;4.43;;;;;;;18.95;100.00;101836.47;5080456;28;20055;-82
2022/04/30 08:39:48;;;;;;;5.78;4.47;;;;;;;19.06;96.58;101838.78;5094559;28;20028;-82
2022/04/30 08:42:34;;;;;;;5.53;4.05;;;;;;;19.39;95.91;101839.38;5096082;28;20509;-83
2022/04/30 08:45:22;;;;;;;7.10;4.03;;;;;;;18.99;94.84;101848.75;5095681;28;20075;-84
2022/04/30 08:48:11;;;;;;;8.15;3.80;;;;;;;18.24;100.00;101834.38;5095673;28;20360;-85
2022/04/30 08:50:57;;;;;;;5.75;3.90;;;;;;;19.07;99.23;101840.50;5097125;28;20024;-82
2022/04/30 08:53:43;;;;;;;5.22;3.97;;;;;;;19.92;95.23;101833.81;5097389;28;20357;-83
2022/04/30 08:56:29;;;;;;;5.57;4.15;;;;;;;20.27;84.97;101830.72;5081557;28;20066;-83
2022/04/30 08:59:18;;;;;;;7.07;3.72;;;;;;;21.11;83.94;101827.19;5095028;28;20103;-82
2022/04/30 09:02:11;;;;;;;6.90;3.28;;;;;;;20.93;81.90;101827.97;5094709;28;20114;-82
2022/04/30 09:04:57;;;;;;;7.50;3.58;;;;;;;20.98;82.62;101820.63;5094802;28;20047;-82
2022/04/30 09:07:56;;;;;;;5.90;3.50;;;;;;;21.16;77.27;101826.97;5095137;28;20012;-82
2022/04/30 09:10:42;;;;;;;4.63;3.10;;;;;;;21.14;74.28;101821.69;5080815;28;20027;-84
2022/04/30 09:13:28;;;;;;;4.43;3.10;;;;;;;22.03;70.45;101812.31;5095144;28;20028;-84
2022/04/30 09:16:22;;;;;;;6.05;3.03;;;;;;;21.06;71.25;101823.00;5093972;28;20023;-83
2022/04/30 09:19:11;;;;;;;3.85;2.72;;;;;;;19.71;75.60;101813.38;5094263;28;20103;-83
2022/04/30 09:21:56;;;;;;;6.55;3.13;;;;;;;18.84;82.52;101827.13;5080529;28;20094;-84
2022/04/30 09:24:49;;;;;;;5.80;2.85;;;;;;;19.04;83.94;101819.34;5093817;28;20457;-84
2022/04/30 09:27:45;;;;;;;4.15;2.90;;;;;;;19.46;82.42;101817.88;5080450;28;20059;-84
2022/04/30 09:30:32;;;;;;;4.18;3.03;;;;;;;19.72;78.30;101820.41;5094390;28;20066;-80
2022/04/30 09:33:20;;;;;;;4.55;3.20;;;;;;;19.14;79.72;101810.16;5095166;28;20062;-83
2022/04/30 09:39:15;;;;;;;7.65;3.00;;;;;;;19.84;76.00;101805.81;5094540;28;20024;-84
2022/04/30 09:42:02;;;;;;;4.45;3.08;;;;;;;19.99;74.08;101807.84;5080666;28;20028;-84
2022/04/30 09:44:47;;;;;;;5.20;2.88;;;;;;;19.35;75.13;101811.19;5094426;28;20478;-84
2022/04/30 09:47:34;;;;;;;4.25;2.70;;;;;;;18.50;82.06;101811.47;5093774;28;20035;-84
2022/04/30 09:56:35;;;;;;;5.45;3.40;;;;;;;18.66;85.90;101798.56;5094013;28;20024;-84
2022/04/30 09:59:22;;;;;;;3.60;2.90;;;;;;;18.53;86.59;101802.53;5093694;28;20028;-84
2022/04/30 10:02:09;;;;;;;5.65;2.60;;;;;;;19.96;84.18;101811.50;5094397;28;20024;-83
2022/04/30 10:04:56;;;;;;;3.80;2.85;;;;;;;20.07;79.22;101808.41;5094834;28;20028;-83
2022/04/30 10:07:43;;;;;;;4.80;2.85;;;;;;;19.77;75.36;101815.78;5094432;28;20024;-84
2022/04/30 10:10:38;;;;;;;6.10;3.20;;;;;;;19.24;78.63;101805.41;5094222;28;20109;-84
2022/04/30 10:14:13;;;;;;;6.25;2.80;;;;;;;20.13;77.13;101794.94;5094168;28;20038;-85
2022/04/30 10:17:13;;;;;;;3.45;3.03;;;;;;;20.09;76.46;101788.84;5074614;28;20032;-75
2022/04/30 10:20:15;;;;;;;3.28;2.80;;;;;;;20.23;75.46;101791.84;5093736;28;20121;-83
2022/04/30 10:23:05;;;;;;;3.20;2.85;;;;;;;20.21;72.95;101793.66;5094032;28;20411;-84
2022/04/30 10:25:53;;;;;;;4.07;3.38;;;;;;;20.45;73.30;101782.03;5080142;28;20028;-85
2022/04/30 10:28:39;;;;;;;5.68;3.10;;;;;;;20.55;71.93;101777.19;5093802;28;20036;-84
2022/04/30 10:31:25;;;;;;;3.70;2.80;;;;;;;20.91;69.31;101780.97;5094058;28;20481;-84
2022/04/30 10:34:12;;;;;;;4.25;2.80;;;;;;;20.60;74.83;101775.19;5094464;28;20437;-83
2022/04/30 10:37:02;;;;;;;4.60;2.80;;;;;;;20.44;72.36;101774.97;5094984;28;20028;-84
2022/04/30 10:39:56;;;;;;;6.88;3.60;;;;;;;19.64;77.70;101773.78;5078891;28;20039;-84
2022/04/30 10:42:43;;;;;;;4.70;2.85;;;;;;;20.16;76.30;101779.69;5079867;28;20024;-84
2022/04/30 10:45:29;;;;;;;5.95;3.20;;;;;;;19.84;75.09;101763.25;5079223;28;20024;-83
2022/04/30 10:48:16;;;;;;;5.50;2.97;;;;;;;20.61;69.90;101771.63;5098431;28;20070;-84
2022/04/30 10:51:10;;;;;;;3.78;2.60;;;;;;;20.15;67.04;101775.31;5096838;28;20024;-83
2022/04/30 10:53:58;;;;;;;4.75;2.80;;;;;;;20.15;70.94;101766.44;5098040;28;20388;-82
2022/04/30 10:56:45;;;;;;;3.40;2.75;;;;;;;20.70;67.99;101766.75;5097957;28;20462;-83
2022/04/30 10:59:31;;;;;;;8.10;2.85;;;;;;;20.37;65.84;101767.31;5096907;28;20028;-84
2022/04/30 11:02:17;;;;;;;3.20;2.88;;;;;;;20.24;69.99;101763.41;5097732;28;20455;-83
2022/04/30 11:05:03;;;;;;;5.50;3.50;;;;;;;20.72;72.37;101762.25;5097524;28;20111;-84
2022/04/30 11:07:50;;;;;;;5.82;3.50;;;;;;;20.63;71.01;101759.97;5098065;28;20031;-83
2022/04/30 11:10:36;;;;;;;7.07;3.35;;;;;;;20.71;70.25;101767.63;5082466;28;20066;-84
2022/04/30 11:13:22;;;;;;;5.50;3.92;;;;;;;20.64;70.61;101759.03;5097245;28;20038;-85
2022/04/30 11:16:14;;;;;;;6.22;4.15;;;;;;;19.81;70.68;101755.38;5082330;28;20055;-84
2022/04/30 11:19:09;;;;;;;6.30;3.60;;;;;;;20.36;70.68;101758.47;5100200;28;20024;-83
2022/04/30 11:21:59;;;;;;;5.95;3.50;;;;;;;20.05;68.02;101754.41;5098137;28;20101;-84
2022/04/30 11:24:44;;;;;;;3.97;2.70;;;;;;;20.19;69.59;101752.97;5097423;28;20459;-84
2022/04/30 11:27:31;;;;;;;7.13;3.10;;;;;;;21.05;68.41;101752.81;5098290;28;20032;-83
2022/04/30 11:30:19;;;;;;;4.20;3.38;;;;;;;21.24;67.26;101756.41;5098498;28;20055;-85
2022/04/30 11:33:06;;;;;;;3.05;2.65;;;;;;;20.59;66.27;101753.06;5082981;28;20464;-84
2022/04/30 11:35:55;;;;;;;3.92;2.83;;;;;;;20.84;64.67;101745.72;5083063;28;20039;-82
2022/04/30 11:38:55;;;;;;;3.63;2.85;;;;;;;20.62;68.47;101741.41;5097415;28;20028;-83
2022/04/30 11:41:43;;;;;;;4.45;3.33;;;;;;;20.48;65.74;101741.97;5098793;28;20032;-84
2022/04/30 11:44:29;;;;;;;4.97;3.03;;;;;;;21.19;66.01;101745.09;5097573;28;20094;-84
2022/04/30 11:47:15;;;;;;;5.25;3.33;;;;;;;21.09;65.79;101748.25;5096389;28;20100;-84
2022/04/30 11:50:09;;;;;;;5.25;3.30;;;;;;;19.99;68.47;101739.56;5096190;28;20070;-84
2022/04/30 11:52:56;;;;;;;6.13;2.80;;;;;;;20.72;67.47;101748.06;5095383;28;20040;-85
2022/04/30 11:55:41;;;;;;;7.40;3.05;;;;;;;20.79;69.16;101737.09;5095812;28;20044;-84
2022/04/30 11:58:42;;;;;;;4.88;3.30;;;;;;;20.99;66.43;101731.78;5096047;28;20028;-84
2022/04/30 12:01:33;;;;;;;3.95;3.10;;;;;;;20.67;66.92;101736.72;5082380;28;20032;-83
2022/04/30 12:04:22;;;;;;;5.18;3.40;;;;;;;20.57;69.06;101733.59;5085967;28;20092;-84
2022/04/30 12:07:10;;;;;;;4.25;3.28;;;;;;;21.04;66.54;101724.44;5096107;28;20024;-84
2022/04/30 12:09:56;;;;;;;4.10;3.70;;;;;;;20.35;68.20;101729.22;5081671;28;20372;-84
2022/04/30 12:12:42;;;;;;;3.13;2.70;;;;;;;20.28;69.37;101725.09;5096087;28;20046;-84
2022/04/30 12:15:28;;;;;;;4.60;3.22;;;;;;;20.16;66.43;101720.25;5096216;28;20031;-85
2022/04/30 12:27:28;;;;;;;5.97;2.90;;;;;;;19.53;73.94;101710.34;5095598;28;20023;-85
2022/04/30 12:30:14;;;;;;;6.68;3.25;;;;;;;20.36;70.56;101712.31;5095967;28;20027;-84
2022/04/30 12:33:05;;;;;;;5.63;2.95;;;;;;;20.49;70.53;101697.59;5096151;28;20034;-84
2022/04/30 12:35:56;;;;;;;5.43;3.35;;;;;;;19.90;68.83;101702.69;5082194;28;20405;-84
2022/04/30 12:38:55;;;;;;;5.93;2.97;;;;;;;20.24;71.15;101699.53;5096696;28;20028;-85
2022/04/30 12:41:41;;;;;;;4.35;3.15;;;;;;;21.67;65.65;101691.28;5081080;28;20016;-83
2022/04/30 12:44:28;;;;;;;6.13;2.97;;;;;;;20.93;66.52;101693.88;5081853;28;20451;-83
2022/04/30 12:47:13;;;;;;;6.55;2.80;;;;;;;20.60;66.63;101701.50;5094554;28;20027;-84
2022/04/30 12:49:59;;;;;;;7.00;3.10;;;;;;;20.95;66.94;101695.56;5096373;28;20333;-84
2022/04/30 12:52:45;;;;;;;7.00;3.25;;;;;;;21.63;62.96;101695.91;5094848;28;20379;-83
2022/04/30 12:55:31;;;;;;;6.00;2.90;;;;;;;21.42;60.86;101686.22;5096077;28;20048;-85
2022/04/30 12:58:17;;;;;;;5.82;3.00;;;;;;;21.65;60.21;101686.03;5095684;28;20467;-84
2022/04/30 13:01:03;;;;;;;6.07;3.20;;;;;;;21.43;59.21;101677.31;5097079;28;20035;-84
2022/04/30 13:03:49;;;;;;;4.88;3.00;;;;;;;20.43;62.46;101684.53;5080493;28;20024;-85
2022/04/30 13:06:39;;;;;;;5.82;2.67;;;;;;;20.38;63.70;101678.53;5095170;28;20030;-84
2022/04/30 13:15:35;;;;;;;5.05;3.63;;;;;;;19.78;67.94;101667.72;5095240;28;20024;-85
2022/04/30 13:18:23;;;;;;;4.63;3.00;;;;;;;19.79;68.11;101673.00;5094624;28;20028;-82
2022/04/30 13:21:08;;;;;;;4.75;3.30;;;;;;;19.89;68.89;101674.34;5080739;28;20032;-83
2022/04/30 13:23:54;;;;;;;4.53;3.25;;;;;;;20.44;67.24;101670.28;5095608;28;20032;-84
2022/04/30 13:26:43;;;;;;;9.38;5.57;;;;;;;20.55;68.26;101668.91;5094991;28;20060;-83
2022/04/30 13:29:29;;;;;;;4.00;3.10;;;;;;;20.43;66.03;101666.75;5094722;28;20032;-82
2022/04/30 13:32:15;;;;;;;3.70;3.03;;;;;;;20.32;68.18;101658.38;5095620;28;20116;-84